Time;durP1;ratioP1;P1;durP2;ratioP2;P2;SDS_P1;SDS_P2;PMS_P1;PMS_P2;Temp;Humidity;BMP_temperature;BMP_pressure;BME280_temperature;BME280_humidity;BME280_pressure;Samples;Min_cycle;Max_cycle;Signal;HPM_P1;HPM_P2
2022/04/19 00:01:03;;;;;;;7.00;5.25;;;11.40;62.90;;;;;;5036846;28;20643;-67
2022/04/19 00:03:28;;;;;;;8.32;5.43;;;11.40;63.10;;;;;;5044344;28;20025;-68
2022/04/19 00:05:54;;;;;;;8.27;5.95;;;11.30;63.40;;;;;;5033649;28;20049;-67
2022/04/19 00:08:19;;;;;;;6.03;5.43;;;11.30;63.50;;;;;;5030898;28;20056;-67
2022/04/19 00:10:45;;;;;;;6.68;5.25;;;11.30;63.40;;;;;;5036363;28;20397;-67
2022/04/19 00:13:13;;;;;;;6.63;5.05;;;11.30;63.30;;;;;;5040923;28;20103;-67
2022/04/19 00:15:39;;;;;;;6.78;5.18;;;11.30;63.30;;;;;;5029338;28;20029;-67
2022/04/19 00:18:08;;;;;;;6.20;5.00;;;11.30;63.20;;;;;;5030324;28;20037;-67
2022/04/19 00:20:34;;;;;;;7.07;5.38;;;11.30;63.20;;;;;;5037574;28;20060;-68
2022/04/19 00:22:59;;;;;;;7.15;5.68;;;11.30;63.10;;;;;;5032534;28;20080;-67
2022/04/19 00:25:25;;;;;;;6.07;4.90;;;11.20;63.00;;;;;;5031957;28;20033;-67
2022/04/19 00:27:51;;;;;;;6.88;5.13;;;11.20;63.10;;;;;;5038515;28;20074;-67
2022/04/19 00:30:17;;;;;;;7.07;5.18;;;11.20;63.20;;;;;;5035848;28;20025;-67
2022/04/19 00:32:42;;;;;;;6.07;5.03;;;11.20;63.20;;;;;;5035173;28;20108;-67
2022/04/19 00:35:10;;;;;;;7.38;5.50;;;11.20;64.00;;;;;;5035169;28;20059;-67
2022/04/19 00:37:36;;;;;;;6.65;4.80;;;11.10;63.50;;;;;;5032318;28;20095;-67
2022/04/19 00:40:08;;;;;;;7.55;5.63;;;11.10;63.70;;;;;;5034837;28;20021;-67
2022/04/19 00:42:34;;;;;;;6.47;4.97;;;11.10;64.00;;;;;;5034280;28;20037;-67
2022/04/19 00:45:05;;;;;;;7.07;5.32;;;11.00;64.10;;;;;;5035507;28;20029;-67
2022/04/19 00:47:34;;;;;;;6.18;4.80;;;11.00;64.30;;;;;;5039367;28;20024;-68
2022/04/19 00:50:01;;;;;;;7.93;5.90;;;11.00;64.40;;;;;;5031294;28;20017;-67
2022/04/19 00:52:28;;;;;;;6.97;5.60;;;10.90;64.60;;;;;;5037968;28;20361;-67
2022/04/19 00:54:54;;;;;;;7.15;5.70;;;10.80;64.70;;;;;;5032350;28;20028;-67
2022/04/19 00:57:19;;;;;;;7.90;5.78;;;10.80;65.00;;;;;;5032352;28;20033;-67
2022/04/19 00:59:46;;;;;;;6.45;5.38;;;10.70;65.40;;;;;;5032367;28;20100;-67
2022/04/19 01:02:12;;;;;;;5.95;4.93;;;10.60;65.50;;;;;;5039233;28;20056;-67
2022/04/19 01:04:37;;;;;;;7.68;5.78;;;10.60;65.60;;;;;;5029758;28;20061;-67
2022/04/19 01:07:03;;;;;;;9.32;6.65;;;10.50;65.70;;;;;;5037791;28;20028;-67
2022/04/19 01:09:30;;;;;;;8.27;5.75;;;10.50;65.80;;;;;;5038184;28;20039;-67
2022/04/19 01:14:40;;;;;;;7.88;5.43;;;10.40;66.30;;;;;;5030988;28;20037;-67
2022/04/19 01:17:08;;;;;;;8.65;5.70;;;10.40;66.50;;;;;;5014273;28;20033;-67
2022/04/19 01:19:40;;;;;;;8.75;6.05;;;10.40;66.70;;;;;;5031974;28;20112;-67
2022/04/19 01:22:06;;;;;;;7.63;5.82;;;10.40;67.00;;;;;;5028970;28;20052;-67
2022/04/19 01:24:32;;;;;;;8.18;6.15;;;10.40;67.00;;;;;;5034752;28;20041;-67
2022/04/19 01:26:58;;;;;;;6.75;5.63;;;10.40;67.10;;;;;;5032568;28;20084;-67
2022/04/19 01:29:24;;;;;;;5.63;4.93;;;10.30;67.20;;;;;;5032260;28;20048;-68
2022/04/19 01:31:51;;;;;;;8.02;5.88;;;10.30;67.40;;;;;;5034585;28;20084;-67
2022/04/19 01:34:18;;;;;;;7.85;5.90;;;10.30;67.60;;;;;;5028974;28;20029;-67
2022/04/19 01:36:43;;;;;;;8.60;5.82;;;10.30;67.70;;;;;;5032530;28;20030;-67
2022/04/19 01:39:11;;;;;;;8.07;5.95;;;10.30;67.90;;;;;;5034157;28;20087;-67
2022/04/19 01:41:38;;;;;;;7.85;6.00;;;10.20;68.00;;;;;;5032950;28;20087;-67
2022/04/19 01:44:05;;;;;;;8.60;6.28;;;10.20;68.20;;;;;;5033929;28;20116;-67
2022/04/19 01:46:31;;;;;;;8.52;5.95;;;10.20;68.40;;;;;;5031463;28;20475;-67
2022/04/19 01:48:57;;;;;;;8.40;6.18;;;10.20;68.60;;;;;;5027619;28;20280;-67
2022/04/19 01:51:24;;;;;;;7.90;6.35;;;10.10;68.60;;;;;;5028966;28;20037;-67
2022/04/19 01:53:51;;;;;;;8.18;6.28;;;10.10;68.90;;;;;;5028756;28;20464;-67
2022/04/19 01:56:17;;;;;;;9.23;6.63;;;10.10;69.00;;;;;;5036169;28;20481;-67
2022/04/19 01:58:44;;;;;;;8.02;5.85;;;10.10;69.10;;;;;;5029081;28;20072;-67
2022/04/19 02:01:09;;;;;;;7.03;5.60;;;10.00;69.10;;;;;;5032786;28;20071;-67
2022/04/19 02:03:35;;;;;;;9.85;7.00;;;10.00;69.30;;;;;;5028585;28;20404;-67
2022/04/19 02:06:01;;;;;;;11.35;6.85;;;10.00;69.40;;;;;;5028681;28;20028;-67
2022/04/19 02:08:27;;;;;;;9.20;6.47;;;10.00;69.30;;;;;;5040668;28;20033;-67
2022/04/19 02:10:53;;;;;;;8.07;6.55;;;10.00;69.20;;;;;;5032564;28;20024;-67
2022/04/19 02:13:20;;;;;;;9.35;8.13;;;9.90;69.20;;;;;;5034369;28;20460;-67
2022/04/19 02:15:46;;;;;;;10.23;7.80;;;9.90;69.30;;;;;;5031452;28;20417;-67
2022/04/19 02:18:12;;;;;;;9.75;6.78;;;9.80;69.40;;;;;;5035038;28;20373;-67
2022/04/19 02:20:37;;;;;;;9.82;7.43;;;9.80;69.30;;;;;;5030926;28;20052;-67
2022/04/19 02:23:03;;;;;;;9.18;7.97;;;9.80;69.40;;;;;;5044877;28;20132;-67
2022/04/19 02:25:29;;;;;;;9.88;7.70;;;9.80;69.40;;;;;;5030400;28;20104;-67
2022/04/19 02:27:54;;;;;;;10.30;7.65;;;9.70;69.40;;;;;;5035138;28;20033;-67
2022/04/19 02:30:20;;;;;;;10.68;7.90;;;9.70;69.40;;;;;;5028093;28;20074;-67
2022/04/19 02:32:50;;;;;;;10.23;7.90;;;9.60;69.50;;;;;;5027986;28;20038;-67
2022/04/19 02:35:18;;;;;;;;;;;9.60;69.60;;;;;;5029664;28;20435;-67
2022/04/19 02:37:48;;;;;;;10.82;7.68;;;9.60;69.70;;;;;;5031969;28;19920;-67
2022/04/19 02:40:13;;;;;;;;;;;9.50;70.20;;;;;;5030000;28;20183;-67
2022/04/19 02:42:39;;;;;;;11.00;7.70;;;9.50;70.20;;;;;;5032261;28;20427;-67
2022/04/19 02:45:05;;;;;;;9.82;7.38;;;9.40;70.60;;;;;;5030601;28;20025;-67
2022/04/19 02:47:31;;;;;;;8.70;6.63;;;9.40;70.30;;;;;;5028402;28;20057;-67
2022/04/19 02:49:57;;;;;;;8.98;6.70;;;9.40;70.10;;;;;;5030941;28;20481;-67
2022/04/19 02:52:22;;;;;;;10.05;7.75;;;9.40;69.80;;;;;;5027931;28;20025;-68
2022/04/19 02:54:48;;;;;;;10.13;7.15;;;9.40;70.20;;;;;;5040134;28;20164;-67
2022/04/19 02:57:13;;;;;;;9.63;7.25;;;9.40;69.50;;;;;;5043508;28;20025;-67
2022/04/19 02:59:42;;;;;;;9.95;7.07;;;9.40;69.40;;;;;;5037570;28;20057;-67
2022/04/19 03:02:08;;;;;;;10.10;7.43;;;9.40;69.40;;;;;;5035504;28;20120;-67
2022/04/19 03:04:33;;;;;;;8.35;7.00;;;9.40;69.40;;;;;;5038161;28;20117;-67
2022/04/19 03:06:59;;;;;;;8.00;6.22;;;9.30;69.40;;;;;;5038147;28;20021;-67
2022/04/19 03:09:24;;;;;;;8.60;6.20;;;9.30;69.40;;;;;;5034796;28;20114;-67
2022/04/19 03:11:50;;;;;;;8.40;6.45;;;9.20;69.90;;;;;;5034651;28;20021;-67
2022/04/19 03:14:17;;;;;;;8.57;6.70;;;9.30;69.30;;;;;;5034067;28;20048;-67
2022/04/19 03:16:42;;;;;;;9.07;6.60;;;9.20;69.10;;;;;;5032792;28;20029;-67
2022/04/19 03:19:08;;;;;;;7.63;6.00;;;9.20;69.00;;;;;;5040304;28;20478;-67
2022/04/19 03:21:33;;;;;;;7.88;5.65;;;9.20;68.90;;;;;;5037512;28;20095;-68
2022/04/19 03:29:27;;;;;;;5.85;4.75;;;9.10;68.70;;;;;;5038959;28;20056;-67
2022/04/19 03:31:54;;;;;;;6.35;4.85;;;9.10;68.60;;;;;;5035439;28;20523;-67
2022/04/19 03:34:20;;;;;;;7.07;5.45;;;9.10;68.70;;;;;;5032895;28;20021;-67
2022/04/19 03:36:45;;;;;;;6.38;4.90;;;9.10;68.90;;;;;;5039972;28;20519;-67
2022/04/19 03:39:11;;;;;;;6.45;4.88;;;9.10;69.00;;;;;;5042135;28;20060;-67
2022/04/19 03:41:40;;;;;;;6.60;4.60;;;9.10;69.00;;;;;;5036705;28;20021;-67
2022/04/19 03:44:07;;;;;;;6.93;5.05;;;9.00;69.00;;;;;;5033546;28;20025;-67
2022/04/19 03:47:06;;;;;;;7.80;5.13;;;9.00;69.20;;;;;;5037855;28;20013;-67
2022/04/19 03:49:18;;;;;;;7.20;5.53;;;9.00;69.50;;;;;;5039353;28;20025;-67
2022/04/19 03:51:43;;;;;;;6.75;5.38;;;9.00;69.70;;;;;;5041820;28;20041;-67
2022/04/19 03:54:09;;;;;;;7.20;5.53;;;8.90;70.00;;;;;;5036387;28;20033;-67
2022/04/19 03:56:34;;;;;;;9.02;6.70;;;8.90;70.20;;;;;;5033603;28;20504;-67
2022/04/19 03:59:00;;;;;;;10.15;6.57;;;8.80;71.00;;;;;;5038416;28;20033;-67
2022/04/19 04:01:25;;;;;;;8.00;6.15;;;8.80;70.40;;;;;;5033825;28;20409;-67
2022/04/19 04:03:51;;;;;;;8.05;5.68;;;8.80;70.30;;;;;;5034468;28;20124;-67
2022/04/19 04:06:19;;;;;;;9.15;7.10;;;8.80;70.20;;;;;;5034142;28;20097;-67
2022/04/19 04:08:45;;;;;;;11.32;6.85;;;8.80;70.00;;;;;;5031879;28;20072;-67
2022/04/19 04:11:10;;;;;;;10.52;7.32;;;8.70;69.70;;;;;;5033334;28;20025;-67
2022/04/19 04:13:36;;;;;;;10.90;7.20;;;8.70;69.50;;;;;;5036029;28;20025;-67
2022/04/19 04:16:01;;;;;;;9.88;7.43;;;8.70;69.30;;;;;;5039063;28;20488;-67
2022/04/19 04:18:29;;;;;;;11.38;7.88;;;8.70;69.30;;;;;;5032941;28;20030;-67
2022/04/19 04:20:54;;;;;;;10.35;7.18;;;8.70;69.40;;;;;;5039937;28;20096;-67
2022/04/19 04:23:20;;;;;;;10.73;8.10;;;8.60;69.40;;;;;;5037023;28;20112;-67
2022/04/19 04:25:45;;;;;;;12.50;8.93;;;8.60;69.40;;;;;;5035814;28;20110;-67
2022/04/19 04:28:11;;;;;;;12.35;8.00;;;8.60;69.40;;;;;;5035645;28;20039;-67
2022/04/19 04:30:37;;;;;;;10.70;7.43;;;8.60;69.30;;;;;;5037897;28;20477;-67
2022/04/19 04:33:03;;;;;;;10.10;7.43;;;8.60;69.30;;;;;;5033193;28;20064;-67
2022/04/19 04:35:28;;;;;;;12.02;8.07;;;8.60;69.30;;;;;;5039205;28;20120;-67
2022/04/19 04:37:54;;;;;;;10.63;7.38;;;8.60;69.40;;;;;;5034021;28;20083;-67
2022/04/19 04:40:19;;;;;;;11.68;8.55;;;8.60;69.30;;;;;;5036981;28;20014;-67
2022/04/19 04:42:45;;;;;;;11.45;8.23;;;8.50;69.50;;;;;;5032806;28;20079;-67
2022/04/19 04:45:10;;;;;;;11.52;8.15;;;8.60;69.60;;;;;;5039372;28;20072;-67
2022/04/19 04:50:20;;;;;;;14.15;7.53;;;8.60;69.60;;;;;;5034788;28;20031;-67
2022/04/19 04:52:46;;;;;;;10.70;7.88;;;8.60;69.60;;;;;;5030429;28;20424;-67
2022/04/19 04:55:12;;;;;;;10.65;7.80;;;8.60;69.70;;;;;;5033863;28;20032;-67
2022/04/19 04:57:38;;;;;;;8.60;6.72;;;8.50;69.60;;;;;;5037090;28;20037;-67
2022/04/19 05:00:04;;;;;;;10.25;7.78;;;8.60;69.60;;;;;;5036090;28;20037;-67
2022/04/19 05:02:31;;;;;;;10.43;7.53;;;8.60;69.60;;;;;;5032198;28;20018;-67
2022/04/19 05:04:56;;;;;;;13.10;7.80;;;8.60;69.60;;;;;;5032458;28;20392;-68
2022/04/19 05:07:22;;;;;;;10.77;7.47;;;8.60;69.60;;;;;;5031964;28;20021;-67
2022/04/19 05:09:47;;;;;;;10.38;7.35;;;8.60;69.60;;;;;;5037661;28;20062;-67
2022/04/19 05:12:13;;;;;;;11.18;7.53;;;8.60;69.70;;;;;;5036107;28;20063;-68
2022/04/19 05:14:38;;;;;;;9.88;6.63;;;8.60;69.60;;;;;;5034099;28;20813;-67
2022/04/19 05:17:04;;;;;;;8.60;6.22;;;8.60;69.50;;;;;;5032012;28;20020;-68
2022/04/19 05:19:29;;;;;;;10.20;6.63;;;8.60;69.30;;;;;;5035096;28;20533;-67
2022/04/19 05:21:55;;;;;;;8.88;5.43;;;8.70;69.30;;;;;;5036890;28;20462;-67
2022/04/19 05:24:20;;;;;;;9.85;6.45;;;8.70;69.30;;;;;;5032220;28;20091;-68
2022/04/19 05:26:46;;;;;;;9.30;6.20;;;8.70;69.30;;;;;;5034575;28;20018;-67
2022/04/19 05:29:11;;;;;;;8.25;6.20;;;8.70;69.30;;;;;;5030251;28;20489;-67
2022/04/19 05:31:37;;;;;;;9.98;7.25;;;8.70;69.30;;;;;;5028929;28;20029;-67
2022/04/19 05:34:03;;;;;;;11.25;7.85;;;8.80;69.30;;;;;;5034199;28;20025;-67
2022/04/19 05:36:29;;;;;;;10.02;7.47;;;8.80;69.40;;;;;;5037600;28;20064;-68
2022/04/19 05:38:54;;;;;;;10.95;7.95;;;8.80;69.60;;;;;;5035557;28;20477;-67
2022/04/19 05:41:20;;;;;;;11.30;8.00;;;8.80;69.80;;;;;;5032314;28;20036;-67
2022/04/19 05:43:47;;;;;;;11.73;8.00;;;8.90;70.60;;;;;;5040502;28;20037;-67
2022/04/19 05:46:13;;;;;;;11.18;7.72;;;8.90;70.10;;;;;;5034001;28;20018;-67
2022/04/19 05:48:38;;;;;;;11.32;8.18;;;9.00;70.30;;;;;;5033370;28;20110;-67
2022/04/19 05:51:04;;;;;;;12.20;8.48;;;9.00;70.30;;;;;;5032428;28;20029;-67
2022/04/19 05:53:29;;;;;;;12.10;8.48;;;9.00;70.50;;;;;;5034090;28;20022;-68
2022/04/19 05:55:55;;;;;;;12.55;8.77;;;9.10;70.90;;;;;;5034117;28;20025;-67
2022/04/19 05:58:20;;;;;;;14.95;9.85;;;9.10;71.30;;;;;;5033365;28;20022;-68
2022/04/19 06:00:46;;;;;;;14.02;8.65;;;9.20;71.80;;;;;;5032142;28;20034;-67
2022/04/19 06:05:55;;;;;;;13.05;8.77;;;9.20;72.00;;;;;;5031438;28;20079;-68
2022/04/19 06:08:21;;;;;;;14.27;9.35;;;9.30;72.20;;;;;;5030184;28;20033;-68
2022/04/19 06:10:48;;;;;;;11.63;8.85;;;9.40;72.30;;;;;;5036738;28;20060;-68
2022/04/19 06:13:13;;;;;;;11.90;8.70;;;9.40;72.40;;;;;;5049663;28;20067;-68
2022/04/19 06:15:39;;;;;;;13.48;8.85;;;9.50;72.50;;;;;;5036472;28;20069;-68
2022/04/19 06:18:05;;;;;;;15.43;10.32;;;9.60;72.70;;;;;;5039943;28;20479;-68
2022/04/19 06:20:30;;;;;;;13.70;9.60;;;9.60;72.90;;;;;;5032928;28;20325;-67
2022/04/19 06:22:55;;;;;;;15.05;9.80;;;9.70;73.10;;;;;;5028398;28;20091;-67
2022/04/19 06:25:21;;;;;;;14.13;9.57;;;9.70;73.20;;;;;;5031802;28;20370;-67
2022/04/19 06:27:47;;;;;;;13.90;9.95;;;9.80;73.70;;;;;;5040949;28;20109;-67
2022/04/19 06:30:12;;;;;;;12.90;9.15;;;9.90;73.00;;;;;;5044573;28;20108;-67
2022/04/19 06:32:38;;;;;;;13.20;9.30;;;9.90;72.90;;;;;;5036643;28;20036;-67
2022/04/19 06:35:04;;;;;;;12.77;9.32;;;10.00;72.80;;;;;;5040283;28;20465;-67
2022/04/19 06:37:30;;;;;;;13.50;9.48;;;10.10;72.80;;;;;;5032022;28;20033;-67
2022/04/19 06:40:04;;;;;;;13.55;9.20;;;10.20;72.60;;;;;;5032250;28;20026;-67
2022/04/19 06:42:29;;;;;;;13.93;8.98;;;10.30;72.30;;;;;;5031984;28;20056;-67
2022/04/19 06:44:55;;;;;;;14.88;9.23;;;10.40;72.10;;;;;;5036257;28;20064;-67
2022/04/19 06:47:21;;;;;;;15.20;9.05;;;10.50;71.70;;;;;;5051919;28;20099;-68
2022/04/19 06:49:46;;;;;;;12.77;9.43;;;10.60;71.40;;;;;;5050849;28;20021;-67
2022/04/19 06:52:12;;;;;;;13.85;9.10;;;10.60;71.10;;;;;;5043573;28;20079;-67
2022/04/19 06:54:37;;;;;;;12.70;8.95;;;10.70;70.80;;;;;;5044024;28;20037;-67
2022/04/19 06:57:03;;;;;;;12.45;8.60;;;10.90;70.60;;;;;;5049170;28;20039;-67
2022/04/19 06:59:29;;;;;;;16.40;10.25;;;10.90;70.10;;;;;;5051700;28;20060;-67
2022/04/19 07:01:55;;;;;;;10.95;8.27;;;11.00;70.00;;;;;;5050929;28;20056;-66
2022/04/19 07:04:20;;;;;;;13.80;8.35;;;11.20;69.60;;;;;;5049614;28;20033;-67
2022/04/19 07:06:46;;;;;;;13.93;9.10;;;11.30;69.30;;;;;;5050510;28;20090;-67
2022/04/19 07:09:11;;;;;;;13.68;9.13;;;11.40;69.00;;;;;;5037791;28;20060;-67
2022/04/19 07:11:37;;;;;;;14.00;9.07;;;11.50;68.70;;;;;;5040910;28;20104;-67
2022/04/19 07:14:03;;;;;;;18.08;9.30;;;11.60;68.80;;;;;;5043100;28;20026;-67
2022/04/19 07:16:29;;;;;;;13.85;9.75;;;11.70;68.70;;;;;;5050645;28;20037;-67
2022/04/19 07:18:54;;;;;;;14.20;8.63;;;11.80;68.40;;;;;;5047277;28;20039;-67
2022/04/19 07:26:49;;;;;;;13.77;8.43;;;12.10;67.50;;;;;;5031664;28;20040;-67
2022/04/19 07:29:18;;;;;;;11.40;7.68;;;12.20;67.40;;;;;;5037906;28;20017;-67
2022/04/19 07:31:46;;;;;;;13.13;9.70;;;12.30;67.30;;;;;;5051424;28;20071;-67
2022/04/19 07:34:12;;;;;;;11.50;7.90;;;12.40;66.60;;;;;;5050021;28;20377;-67
2022/04/19 07:36:40;;;;;;;10.63;7.45;;;12.50;66.40;;;;;;5038528;28;20033;-67
2022/04/19 07:39:06;;;;;;;11.73;8.02;;;12.60;66.20;;;;;;5038259;28;20044;-67
2022/04/19 07:41:34;;;;;;;12.20;8.63;;;12.60;65.90;;;;;;5051006;28;20052;-67
2022/04/19 07:44:01;;;;;;;10.98;8.27;;;12.70;65.50;;;;;;5054641;28;20104;-67
2022/04/19 07:46:26;;;;;;;11.25;8.05;;;12.80;65.20;;;;;;5054706;28;20017;-67
2022/04/19 07:48:52;;;;;;;12.07;8.15;;;12.90;64.80;;;;;;5054969;28;20037;-67
2022/04/19 07:51:18;;;;;;;12.90;8.93;;;13.00;64.70;;;;;;5054425;28;20029;-67
2022/04/19 07:53:44;;;;;;;13.68;8.80;;;13.10;64.30;;;;;;5055001;28;20180;-67
2022/04/19 07:56:11;;;;;;;16.15;9.88;;;13.10;64.40;;;;;;5053521;28;20025;-67
2022/04/19 07:58:36;;;;;;;13.45;8.52;;;13.20;63.50;;;;;;5053157;28;20056;-67
2022/04/19 08:01:03;;;;;;;14.30;8.52;;;13.30;63.50;;;;;;5054812;28;20064;-67
2022/04/19 08:03:28;;;;;;;13.15;8.48;;;13.40;63.40;;;;;;5054561;28;20018;-67
2022/04/19 08:05:54;;;;;;;17.02;9.13;;;13.40;63.00;;;;;;5054068;28;20079;-67
2022/04/19 08:08:21;;;;;;;11.55;8.15;;;13.50;63.00;;;;;;5054240;28;20028;-67
2022/04/19 08:10:47;;;;;;;13.35;8.48;;;13.60;62.40;;;;;;5054637;28;20099;-67
2022/04/19 08:13:13;;;;;;;10.15;7.10;;;13.70;62.20;;;;;;5054173;28;20025;-67
2022/04/19 08:15:39;;;;;;;10.82;7.40;;;13.80;62.00;;;;;;5053190;28;20048;-67
2022/04/19 08:18:05;;;;;;;13.80;7.15;;;13.90;61.80;;;;;;5054135;28;20111;-67
2022/04/19 08:20:30;;;;;;;11.23;7.53;;;14.00;61.50;;;;;;5053811;28;20021;-67
2022/04/19 08:22:56;;;;;;;12.77;8.18;;;14.10;60.90;;;;;;5054036;28;20045;-67
2022/04/19 08:25:22;;;;;;;14.43;8.10;;;14.20;60.90;;;;;;5054017;28;20136;-67
2022/04/19 08:27:48;;;;;;;12.45;7.75;;;14.30;60.40;;;;;;5053942;28;20542;-67
2022/04/19 08:30:16;;;;;;;10.82;7.65;;;14.40;59.90;;;;;;5053828;28;20104;-67
2022/04/19 08:32:45;;;;;;;10.85;7.53;;;14.40;59.50;;;;;;5053978;28;20481;-67
2022/04/19 08:35:11;;;;;;;14.40;7.50;;;14.50;59.10;;;;;;5053789;28;20056;-67
2022/04/19 08:37:37;;;;;;;12.38;7.32;;;14.60;58.80;;;;;;5054116;28;20029;-67
2022/04/19 08:40:06;;;;;;;11.77;7.38;;;14.60;58.50;;;;;;5052778;28;20373;-67
2022/04/19 08:42:32;;;;;;;11.55;7.18;;;14.70;58.50;;;;;;5053786;28;20017;-67
2022/04/19 08:45:03;;;;;;;12.40;6.68;;;14.70;58.20;;;;;;5053785;28;20013;-67
2022/04/19 08:47:33;;;;;;;8.93;5.90;;;14.80;57.80;;;;;;5053445;28;20025;-67
2022/04/19 08:50:04;;;;;;;11.98;7.05;;;14.90;57.50;;;;;;5053671;28;20025;-67
2022/04/19 08:52:32;;;;;;;12.50;7.40;;;15.00;57.10;;;;;;5053205;28;20017;-67
2022/04/19 08:57:41;;;;;;;10.85;6.85;;;15.10;56.90;;;;;;5053627;28;20447;-67
2022/04/19 09:00:08;;;;;;;12.50;7.43;;;15.20;56.90;;;;;;5052186;28;20021;-67
2022/04/19 09:02:37;;;;;;;9.32;6.30;;;15.30;57.00;;;;;;5053638;28;20032;-67
2022/04/19 09:05:21;;;;;;;10.40;6.68;;;15.40;56.90;;;;;;5052358;28;20017;-67
2022/04/19 09:07:48;;;;;;;11.30;6.95;;;15.50;56.60;;;;;;5053455;28;20049;-67
2022/04/19 09:10:15;;;;;;;9.73;5.72;;;15.50;56.60;;;;;;5053520;28;20063;-67
2022/04/19 09:12:56;;;;;;;10.02;5.53;;;15.60;56.40;;;;;;5053312;28;20027;-67
2022/04/19 09:15:22;;;;;;;10.98;6.88;;;15.70;56.10;;;;;;5053264;28;20025;-67
2022/04/19 09:17:49;;;;;;;9.18;5.35;;;15.80;55.90;;;;;;5052024;28;20025;-67
2022/04/19 09:20:18;;;;;;;7.93;5.28;;;15.90;55.70;;;;;;5051906;28;20594;-67
2022/04/19 09:22:45;;;;;;;7.07;4.63;;;16.00;55.50;;;;;;5052991;28;20067;-68
2022/04/19 09:25:18;;;;;;;7.20;5.07;;;16.10;55.10;;;;;;5053057;28;20033;-67
2022/04/19 09:27:45;;;;;;;7.82;5.07;;;16.10;54.80;;;;;;5052596;28;20485;-67
2022/04/19 09:30:18;;;;;;;7.22;4.75;;;16.20;54.40;;;;;;5053218;28;20107;-67
2022/04/19 09:33:14;;;;;;;8.85;5.05;;;16.30;54.30;;;;;;5053318;28;20029;-67
2022/04/19 09:35:45;;;;;;;8.32;5.32;;;16.40;53.40;;;;;;5052815;28;20060;-67
2022/04/19 09:38:12;;;;;;;9.02;5.35;;;16.50;53.30;;;;;;5052703;28;20029;-67
2022/04/19 09:40:46;;;;;;;8.40;4.75;;;16.50;53.10;;;;;;5052503;28;20079;-67
2022/04/19 09:43:23;;;;;;;7.55;4.20;;;16.60;53.10;;;;;;5050805;28;20469;-67
2022/04/19 09:45:56;;;;;;;7.78;4.32;;;16.70;52.20;;;;;;5051565;28;20021;-67
2022/04/19 09:48:27;;;;;;;9.68;5.15;;;16.70;52.00;;;;;;5052534;28;20540;-67
2022/04/19 09:50:59;;;;;;;7.80;5.30;;;16.80;52.10;;;;;;5050337;28;20469;-68
2022/04/19 09:53:26;;;;;;;7.95;4.75;;;16.90;52.30;;;;;;5052223;28;20420;-67
2022/04/19 09:55:54;;;;;;;8.00;5.05;;;17.00;52.50;;;;;;5052357;28;20477;-67
2022/04/19 09:58:21;;;;;;;7.75;4.90;;;17.00;52.20;;;;;;5051684;28;20397;-67
2022/04/19 10:00:48;;;;;;;6.30;4.18;;;17.10;51.90;;;;;;5052418;28;20055;-67
2022/04/19 10:08:44;;;;;;;7.63;3.95;;;17.40;50.50;;;;;;5052345;28;20079;-67
2022/04/19 10:11:10;;;;;;;6.20;3.50;;;17.50;49.80;;;;;;5051800;28;20049;-67
2022/04/19 10:13:38;;;;;;;5.28;3.38;;;17.60;48.70;;;;;;5048538;28;20063;-67
2022/04/19 10:16:11;;;;;;;7.00;3.75;;;17.70;48.70;;;;;;5052153;28;20447;-67
2022/04/19 10:18:36;;;;;;;8.95;4.03;;;17.90;49.00;;;;;;5051983;28;20174;-67
2022/04/19 10:21:05;;;;;;;8.13;3.30;;;18.00;48.80;;;;;;5052303;28;20484;-67
2022/04/19 10:23:35;;;;;;;6.15;3.40;;;18.10;48.50;;;;;;5051655;28;20068;-68
2022/04/19 10:26:21;;;;;;;7.00;3.47;;;18.30;48.20;;;;;;5052156;28;20028;-68
2022/04/19 10:28:52;;;;;;;8.13;4.22;;;18.50;47.80;;;;;;5051993;28;20496;-67
2022/04/19 10:31:34;;;;;;;5.68;3.10;;;18.60;46.90;;;;;;5052027;28;20025;-68
2022/04/19 10:34:03;;;;;;;5.47;2.88;;;18.80;47.50;;;;;;5051810;28;20051;-68
2022/04/19 10:36:39;;;;;;;7.60;3.90;;;18.90;47.20;;;;;;5051352;28;20029;-67
2022/04/19 10:39:10;;;;;;;5.78;3.72;;;19.10;47.40;;;;;;5051496;28;20112;-68
2022/04/19 10:41:48;;;;;;;7.50;3.30;;;19.20;46.80;;;;;;5050583;28;20021;-68
2022/04/19 10:44:28;;;;;;;6.95;3.38;;;19.30;46.40;;;;;;5051675;28;20029;-67
2022/04/19 10:47:15;;;;;;;6.10;3.25;;;19.40;45.90;;;;;;5052042;28;20025;-67
2022/04/19 10:49:54;;;;;;;6.32;3.67;;;19.60;45.50;;;;;;5051844;28;20029;-67
2022/04/19 10:52:44;;;;;;;;;;;19.70;45.90;;;;;;5051246;28;20380;-67
2022/04/19 10:55:17;;;;;;;4.30;2.85;;;19.80;45.40;;;;;;5051858;28;20376;-67
2022/04/19 11:00:38;;;;;;;5.30;3.13;;;20.20;44.30;;;;;;5052034;28;20505;-68
2022/04/19 11:03:07;;;;;;;6.25;3.50;;;20.40;45.70;;;;;;5047493;28;20022;-67
2022/04/19 11:05:41;;;;;;;5.70;3.42;;;21.00;45.50;;;;;;5041302;28;20021;-68
2022/04/19 11:08:25;;;;;;;5.55;3.28;;;22.70;44.40;;;;;;5047485;28;20376;-68
2022/04/19 11:10:52;;;;;;;5.43;3.15;;;24.50;41.90;;;;;;5049552;28;20021;-68
2022/04/19 11:13:26;;;;;;;5.82;3.60;;;26.10;39.80;;;;;;5044247;28;20018;-68
2022/04/19 11:15:59;;;;;;;5.07;3.67;;;27.30;37.30;;;;;;5051521;28;20476;-68
2022/04/19 11:18:30;;;;;;;6.20;3.85;;;27.80;35.30;;;;;;5053025;28;20037;-67
2022/04/19 11:20:58;;;;;;;5.30;3.40;;;28.40;35.20;;;;;;5053807;28;20074;-68
2022/04/19 11:23:25;;;;;;;4.03;2.53;;;28.80;34.80;;;;;;5051338;28;20393;-68
2022/04/19 11:25:53;;;;;;;5.65;3.50;;;29.30;34.80;;;;;;5049681;28;20021;-68
2022/04/19 11:28:21;;;;;;;4.75;3.00;;;28.90;33.90;;;;;;5050566;28;20120;-68
2022/04/19 11:30:49;;;;;;;5.30;3.60;;;27.90;34.60;;;;;;5050760;28;20477;-68
2022/04/19 11:33:23;;;;;;;6.90;4.13;;;27.20;35.10;;;;;;5053249;28;20057;-68
2022/04/19 11:36:02;;;;;;;6.07;3.83;;;26.70;35.00;;;;;;5049264;28;20639;-67
2022/04/19 11:38:29;;;;;;;6.15;4.13;;;26.30;35.60;;;;;;5053207;28;20063;-68
2022/04/19 11:46:46;;;;;;;4.00;2.83;;;25.80;36.00;;;;;;5051043;28;20437;-67
2022/04/19 11:49:20;;;;;;;5.93;4.03;;;25.90;36.10;;;;;;5053455;28;20503;-67
2022/04/19 11:51:57;;;;;;;5.93;4.20;;;26.20;35.90;;;;;;5054804;28;20104;-68
2022/04/19 11:54:27;;;;;;;7.20;4.40;;;26.40;36.10;;;;;;5054618;28;20036;-68
2022/04/19 11:57:00;;;;;;;5.00;3.40;;;26.70;35.50;;;;;;5054641;28;20071;-68
2022/04/19 11:59:32;;;;;;;5.90;3.53;;;27.10;35.50;;;;;;5054697;28;20394;-68
2022/04/19 12:01:58;;;;;;;8.02;3.42;;;27.40;35.30;;;;;;5054679;28;20025;-68
2022/04/19 12:04:25;;;;;;;5.10;3.67;;;27.70;35.00;;;;;;5054595;28;20021;-68
2022/04/19 12:06:59;;;;;;;6.47;4.35;;;28.00;34.90;;;;;;5054599;28;20018;-68
2022/04/19 12:09:25;;;;;;;6.28;4.47;;;28.20;34.30;;;;;;5054491;28;20078;-68
2022/04/19 12:11:53;;;;;;;7.22;4.40;;;28.40;34.30;;;;;;5054310;28;20108;-68
2022/04/19 12:14:27;;;;;;;7.07;4.25;;;28.50;34.00;;;;;;5054310;28;20025;-68
2022/04/19 12:17:03;;;;;;;5.10;4.00;;;28.60;33.30;;;;;;5053241;28;20025;-68
2022/04/19 12:19:33;;;;;;;6.03;4.60;;;28.90;33.60;;;;;;5054206;28;20124;-68
2022/04/19 12:21:58;;;;;;;7.35;4.32;;;28.80;33.20;;;;;;5053821;28;20048;-68
2022/04/19 12:24:26;;;;;;;5.78;4.15;;;29.00;33.40;;;;;;5053443;28;20029;-68
2022/04/19 12:27:02;;;;;;;6.22;4.07;;;28.90;33.00;;;;;;5053997;28;20048;-68
2022/04/19 12:29:28;;;;;;;8.10;4.47;;;28.90;33.30;;;;;;5053565;28;20495;-68
2022/04/19 12:32:00;;;;;;;4.90;2.95;;;29.00;33.10;;;;;;5054380;28;20025;-68
2022/04/19 12:34:37;;;;;;;6.13;4.60;;;29.10;33.30;;;;;;5053908;28;20056;-68
2022/04/19 12:37:12;;;;;;;5.03;3.67;;;29.20;32.70;;;;;;5048860;28;20075;-68
2022/04/19 12:39:38;;;;;;;5.72;3.75;;;29.30;32.70;;;;;;5050250;28;20053;-68
2022/04/19 12:42:09;;;;;;;6.47;4.20;;;29.40;32.50;;;;;;5052949;28;20204;-68
2022/04/19 12:44:36;;;;;;;5.63;3.95;;;29.40;32.70;;;;;;5053815;28;20039;-68
2022/04/19 12:47:14;;;;;;;5.32;3.10;;;29.40;32.70;;;;;;5049771;28;20056;-68
2022/04/19 12:49:47;;;;;;;6.63;4.03;;;29.60;32.40;;;;;;5038203;28;20047;-68
2022/04/19 12:52:13;;;;;;;4.90;3.40;;;29.70;32.40;;;;;;5035514;28;20484;-68
2022/04/19 12:54:41;;;;;;;7.05;3.95;;;29.70;32.70;;;;;;5047506;28;20540;-68
2022/04/19 12:57:17;;;;;;;4.95;3.03;;;29.70;32.10;;;;;;5039198;28;20105;-68
2022/04/19 12:59:43;;;;;;;5.03;3.95;;;29.60;31.80;;;;;;5066640;28;20024;-68
2022/04/19 13:02:10;;;;;;;4.65;2.97;;;29.50;32.00;;;;;;5062232;28;20051;-68
2022/04/19 13:04:36;;;;;;;3.28;2.10;;;29.60;32.10;;;;;;5067131;28;20044;-68
2022/04/19 13:12:30;;;;;;;3.55;2.80;;;29.60;32.00;;;;;;5066528;28;20059;-68
2022/04/19 13:14:57;;;;;;;4.75;2.55;;;29.80;31.90;;;;;;5054869;28;20029;-68
2022/04/19 13:17:24;;;;;;;4.32;2.70;;;30.10;32.60;;;;;;5060332;28;20028;-68
2022/04/19 13:19:50;;;;;;;4.88;3.20;;;30.10;32.60;;;;;;5060653;28;20024;-68
2022/04/19 13:22:16;;;;;;;2.88;2.30;;;29.90;31.70;;;;;;5060699;28;20093;-67
2022/04/19 13:24:41;;;;;;;3.70;2.28;;;29.80;32.10;;;;;;5066234;28;20150;-68
2022/04/19 13:27:08;;;;;;;4.38;2.38;;;29.80;32.30;;;;;;5054807;28;20411;-67
2022/04/19 13:29:38;;;;;;;4.60;2.35;;;29.80;32.30;;;;;;5063352;28;20040;-68
2022/04/19 13:32:04;;;;;;;3.20;2.13;;;29.90;32.00;;;;;;5050930;28;20135;-67